Huvudsida
METAR-TAF:

METAR-TAF

Flygplatser :

Al-`Ula, Saudiarabien

latitud: 26-29-00N, longitud: 038-07-01E, höjd: 624 m

Aktuellt väderrapport

Denna rapport gjordes för 5 timmar och 2 minuter sedan, klockan 20:00 UTC
Vind 4 kt från ost/nordost
Temperatur 22°C
Fuktighet 9%
Tryck 1016 hPa
Sikt 10 km eller mer
Inga moln under 1 500 m eller inga cumulonimbus

METAR: OEAO 222000Z 06004KT CAVOK 22/M12 Q1016

Tid: 04:02 (01:02 UTC)

Väderprognos

Denna rapport gjordes för 2 timmar och 2 minuter sedan, klockan 23:00 UTC
Prognos gäller från 23 kl. 00 UTC till 24 kl. 06 UTC
Vind 6 kt från nord
Sikt 10 km eller mer
Inga moln under 1 500 m eller inga cumulonimbus
Blir
från 23 kl. 06 UTC till 23 kl. 08 UTC
Vind 14 kt från ost/nordost
Sikt: 8000 m
Klar himmel
Temporärt
från 23 kl. 06 UTC till 23 kl. 16 UTC
Sikt: 4000 m
utbrett stoft, högt damm drev

TAF: OEAO 222300Z 2300/2406 36006KT CAVOK BECMG 2306/2308 07014KT 8000 SKC TEMPO 2306/2316 4000 DU BLDU

Aktuella väderrapporter och prognoser från 4000 flygplatser (METAR- och TAF-rapporter).

De tillgängliga stationerna syns som gula och röda prickar på kartan.

För musen över prickarna för att se namnen på stationerna.

Klicka sedan för att få väderrapporter och prognoser.

För att ändra kartan: Klicka på de gröna knapparna med ett svart kors på för att zooma in; den gröna knappen med ett streck på för att zooma ut; eller på de gröna pilarna för angränsande kartor.


METAR-TAF: